createdAt,value
2017-11-07T00:01:43.255Z,23.60
2017-11-07T00:04:10.814Z,23.67
2017-11-07T00:06:38.323Z,22.77
2017-11-07T00:09:05.838Z,23.20
2017-11-07T00:11:33.351Z,22.73
2017-11-07T00:14:00.841Z,25.83
2017-11-07T00:16:29.114Z,22.10
2017-11-07T00:19:04.670Z,23.17
2017-11-07T00:21:32.169Z,22.07
2017-11-07T00:23:59.681Z,22.47
2017-11-07T00:26:27.950Z,22.53
2017-11-07T00:28:56.213Z,23.50
2017-11-07T00:31:23.734Z,23.20
2017-11-07T00:33:51.360Z,23.40
2017-11-07T00:36:18.912Z,21.90
2017-11-07T00:38:48.018Z,21.37
2017-11-07T00:41:15.521Z,20.23
2017-11-07T00:43:43.039Z,20.33
2017-11-07T00:46:10.547Z,20.85
2017-11-07T00:48:38.141Z,21.33
2017-11-07T00:51:05.650Z,21.75
2017-11-07T00:53:33.177Z,23.48
2017-11-07T00:56:00.684Z,22.02
2017-11-07T00:58:28.185Z,22.08
2017-11-07T01:00:55.687Z,23.03
2017-11-07T01:03:23.191Z,21.00
2017-11-07T01:05:50.749Z,20.13
2017-11-07T01:08:19.001Z,22.07
2017-11-07T01:10:48.026Z,25.13
2017-11-07T01:13:16.300Z,21.75
2017-11-07T01:15:43.887Z,29.45
2017-11-07T01:18:11.419Z,25.33
2017-11-07T01:20:38.973Z,24.50
2017-11-07T01:23:07.249Z,24.87
2017-11-07T01:25:35.530Z,26.93
2017-11-07T01:28:03.059Z,24.30
2017-11-07T01:30:30.558Z,21.65
2017-11-07T01:32:58.107Z,19.92
2017-11-07T01:35:25.671Z,22.58
2017-11-07T01:37:53.158Z,23.87
2017-11-07T01:40:20.685Z,23.85
2017-11-07T01:42:48.237Z,20.48
2017-11-07T01:45:16.622Z,21.73
2017-11-07T01:47:44.122Z,18.80
2017-11-07T01:50:11.613Z,19.27
2017-11-07T01:52:39.877Z,19.43
2017-11-07T01:55:08.874Z,17.80
2017-11-07T01:57:37.141Z,18.37
2017-11-07T02:00:04.648Z,19.12
2017-11-07T02:02:32.150Z,19.90
2017-11-07T02:04:59.653Z,18.67
2017-11-07T02:07:27.147Z,19.93
2017-11-07T02:09:54.628Z,17.63
2017-11-07T02:12:22.129Z,17.63
2017-11-07T02:14:49.623Z,16.83
2017-11-07T02:17:17.133Z,15.87
2017-11-07T02:19:45.400Z,17.57
2017-11-07T02:22:13.694Z,16.67
2017-11-07T02:24:41.973Z,17.40
2017-11-07T02:27:09.528Z,16.90
2017-11-07T02:29:37.025Z,17.40
2017-11-07T02:32:04.566Z,18.77
2017-11-07T02:34:32.077Z,17.98
2017-11-07T02:37:00.350Z,18.12
2017-11-07T02:39:27.936Z,17.92
2017-11-07T02:41:56.216Z,19.80
2017-11-07T02:44:23.794Z,18.53
2017-11-07T02:46:51.306Z,17.93
2017-11-07T02:49:18.910Z,17.33
2017-11-07T02:51:46.453Z,17.93
2017-11-07T02:54:13.961Z,19.42
2017-11-07T02:56:41.473Z,17.73
2017-11-07T02:59:08.969Z,21.50
2017-11-07T03:01:36.474Z,17.73
2017-11-07T03:04:04.792Z,18.60
2017-11-07T03:06:32.295Z,19.20
2017-11-07T03:08:59.799Z,18.37
2017-11-07T03:11:27.305Z,18.23
2017-11-07T03:13:54.792Z,17.77
2017-11-07T03:16:22.353Z,19.97
2017-11-07T03:18:50.609Z,20.10
2017-11-07T03:21:18.886Z,18.80
2017-11-07T03:23:46.466Z,18.83
2017-11-07T03:26:14.800Z,18.70
2017-11-07T03:28:42.296Z,18.63
2017-11-07T03:31:10.567Z,18.93
2017-11-07T03:33:38.854Z,18.73
2017-11-07T03:36:07.156Z,18.77
2017-11-07T03:38:34.664Z,17.47
2017-11-07T03:41:02.173Z,19.10
2017-11-07T03:43:29.670Z,20.70
2017-11-07T03:45:57.261Z,18.23
2017-11-07T03:48:25.514Z,20.67
2017-11-07T03:50:53.105Z,21.23
2017-11-07T03:53:20.602Z,20.70
2017-11-07T03:55:48.107Z,21.90
2017-11-07T03:58:16.398Z,20.43
2017-11-07T04:00:43.904Z,20.67
2017-11-07T04:03:11.404Z,21.63
2017-11-07T04:05:39.693Z,18.00
2017-11-07T04:08:07.240Z,20.03
2017-11-07T04:10:36.427Z,20.90
2017-11-07T04:13:04.684Z,18.43
2017-11-07T04:15:33.694Z,20.93
2017-11-07T04:18:01.181Z,18.77
2017-11-07T04:20:28.689Z,19.53
2017-11-07T04:22:56.209Z,18.57
2017-11-07T04:25:23.711Z,20.67
2017-11-07T04:27:52.022Z,18.63
2017-11-07T04:30:20.290Z,19.30
2017-11-07T04:32:48.536Z,21.00
2017-11-07T04:35:16.047Z,19.93
2017-11-07T04:37:43.547Z,21.10
2017-11-07T04:40:11.041Z,20.97
2017-11-07T04:42:39.337Z,19.97
2017-11-07T04:45:06.837Z,21.33
2017-11-07T04:47:34.371Z,17.87
2017-11-07T04:50:01.886Z,18.67
2017-11-07T04:52:30.156Z,22.47
2017-11-07T04:54:57.654Z,22.40
2017-11-07T04:57:25.163Z,23.07
2017-11-07T04:59:52.758Z,22.33
2017-11-07T05:02:20.272Z,24.73
2017-11-07T05:04:47.878Z,32.77
2017-11-07T05:07:15.382Z,26.83
2017-11-07T05:09:42.903Z,25.43
2017-11-07T05:12:10.431Z,21.37
2017-11-07T05:14:39.598Z,24.23
2017-11-07T05:17:07.204Z,26.63
2017-11-07T05:19:34.697Z,22.80
2017-11-07T05:22:02.229Z,22.00
2017-11-07T05:24:29.722Z,21.40
2017-11-07T05:26:57.225Z,20.73
2017-11-07T05:29:25.509Z,24.47
2017-11-07T05:31:53.773Z,21.03
2017-11-07T05:34:22.028Z,21.73
2017-11-07T05:36:49.635Z,23.60
2017-11-07T05:39:17.136Z,21.07
2017-11-07T05:41:44.646Z,21.33
2017-11-07T05:44:12.135Z,21.93
2017-11-07T05:46:39.658Z,21.50
2017-11-07T05:49:07.220Z,22.53
2017-11-07T05:51:34.721Z,22.73
2017-11-07T05:54:02.218Z,21.43
2017-11-07T05:56:30.482Z,21.90
2017-11-07T05:58:58.006Z,23.23
2017-11-07T06:01:25.530Z,28.27
2017-11-07T06:03:53.026Z,27.87
2017-11-07T06:06:20.649Z,27.27
2017-11-07T06:08:48.160Z,28.87
2017-11-07T06:11:15.678Z,28.43
2017-11-07T06:13:43.226Z,28.93
2017-11-07T06:16:10.729Z,25.20
2017-11-07T06:18:38.379Z,27.63
2017-11-07T06:21:05.883Z,27.60
2017-11-07T06:23:34.167Z,27.10
2017-11-07T06:26:02.438Z,29.03
2017-11-07T06:28:30.693Z,30.77
2017-11-07T06:30:58.206Z,27.80
2017-11-07T06:33:25.725Z,30.33
2017-11-07T06:35:53.987Z,25.87
2017-11-07T06:38:21.501Z,25.47
2017-11-07T06:40:49.009Z,28.20
2017-11-07T06:43:16.507Z,24.27
2017-11-07T06:45:44.050Z,23.90
2017-11-07T06:48:11.547Z,24.40
2017-11-07T06:50:39.064Z,23.87
2017-11-07T06:53:07.308Z,22.60
2017-11-07T06:55:34.904Z,23.10
2017-11-07T06:58:02.463Z,21.77
2017-11-07T07:00:30.018Z,20.60
2017-11-07T07:02:58.346Z,20.37
2017-11-07T07:05:25.890Z,19.57
2017-11-07T07:07:53.385Z,21.77
2017-11-07T07:10:20.974Z,25.07
2017-11-07T07:12:48.567Z,22.03
2017-11-07T07:15:16.058Z,22.97
2017-11-07T07:17:43.571Z,20.53
2017-11-07T07:20:11.080Z,22.53
2017-11-07T07:22:38.696Z,21.17
2017-11-07T07:25:06.230Z,22.87
2017-11-07T07:27:33.785Z,21.73
2017-11-07T07:30:01.346Z,20.93
2017-11-07T07:32:28.854Z,21.03
2017-11-07T07:34:56.369Z,22.23
2017-11-07T07:37:23.864Z,18.37
2017-11-07T07:39:51.356Z,20.47
2017-11-07T07:42:19.654Z,20.67
2017-11-07T07:44:47.912Z,17.83
2017-11-07T07:47:15.413Z,20.40
2017-11-07T07:49:43.017Z,16.87
2017-11-07T07:52:11.329Z,20.83
2017-11-07T07:54:38.820Z,20.93
2017-11-07T07:57:06.323Z,18.43
2017-11-07T07:59:34.581Z,20.37
2017-11-07T08:02:02.178Z,17.37
2017-11-07T08:04:30.423Z,20.77
2017-11-07T08:06:57.924Z,20.30
2017-11-07T08:09:25.505Z,19.43
2017-11-07T08:11:53.010Z,16.53
2017-11-07T08:14:20.488Z,18.00
2017-11-07T08:16:48.780Z,19.83
2017-11-07T08:19:16.280Z,17.77
2017-11-07T08:21:43.881Z,17.47
2017-11-07T08:24:11.373Z,16.83
2017-11-07T08:26:38.901Z,19.50
2017-11-07T08:29:07.153Z,17.23
2017-11-07T08:31:34.646Z,18.80
2017-11-07T08:34:02.168Z,18.60
2017-11-07T08:36:29.669Z,18.03
2017-11-07T08:38:57.165Z,21.97
2017-11-07T08:41:24.664Z,19.27
2017-11-07T08:43:52.917Z,20.23
2017-11-07T08:46:21.210Z,20.90
2017-11-07T08:48:49.469Z,21.37
2017-11-07T08:51:17.802Z,21.97
2017-11-07T08:53:45.298Z,22.27
2017-11-07T08:56:13.565Z,21.97
2017-11-07T08:58:41.065Z,22.77
2017-11-07T09:01:09.328Z,20.83
2017-11-07T09:03:37.608Z,22.80
2017-11-07T09:06:05.886Z,22.77
2017-11-07T09:08:34.153Z,23.13
2017-11-07T09:11:02.492Z,25.20
2017-11-07T09:13:30.005Z,25.37
2017-11-07T09:15:57.566Z,26.97
2017-11-07T09:18:25.064Z,24.90
2017-11-07T09:20:52.561Z,29.93
2017-11-07T09:23:20.821Z,27.07
2017-11-07T09:25:48.338Z,32.27
2017-11-07T09:28:15.829Z,27.67
2017-11-07T09:30:43.358Z,28.20
2017-11-07T09:33:10.854Z,26.20
2017-11-07T09:35:38.388Z,26.63
2017-11-07T09:38:05.949Z,25.27
2017-11-07T09:40:33.468Z,26.83
2017-11-07T09:43:01.029Z,27.63
2017-11-07T09:45:28.541Z,24.17
2017-11-07T09:47:56.041Z,24.37
2017-11-07T09:50:23.574Z,25.83
2017-11-07T09:52:51.066Z,26.07
2017-11-07T09:55:18.725Z,24.87
2017-11-07T09:57:46.408Z,24.93
2017-11-07T10:00:13.937Z,22.87
2017-11-07T10:02:41.466Z,24.03
2017-11-07T10:05:09.057Z,27.23
2017-11-07T10:07:37.327Z,25.97
2017-11-07T10:10:05.613Z,27.60
2017-11-07T10:12:33.976Z,26.07
2017-11-07T10:15:02.231Z,21.23
2017-11-07T10:17:29.736Z,23.33
2017-11-07T10:19:57.390Z,24.33
2017-11-07T10:22:24.894Z,23.20
2017-11-07T10:24:52.390Z,22.30
2017-11-07T10:27:20.701Z,22.03
2017-11-07T10:29:48.191Z,22.67
2017-11-07T10:32:15.690Z,22.53
2017-11-07T10:34:43.953Z,21.93
2017-11-07T10:37:12.225Z,23.97
2017-11-07T10:39:40.492Z,22.57
2017-11-07T10:42:09.381Z,24.37
2017-11-07T10:44:36.865Z,21.37
2017-11-07T10:47:05.140Z,23.33
2017-11-07T10:49:33.388Z,23.13
2017-11-07T10:52:00.904Z,22.90
2017-11-07T10:54:28.389Z,21.37
2017-11-07T10:56:55.917Z,17.37
2017-11-07T10:59:23.437Z,19.57
2017-11-07T11:01:51.714Z,20.90
2017-11-07T11:04:19.989Z,20.83
2017-11-07T11:06:48.257Z,22.27
2017-11-07T11:09:15.766Z,22.87
2017-11-07T11:11:43.293Z,19.57
2017-11-07T11:14:11.553Z,20.20
2017-11-07T11:16:39.048Z,20.13
2017-11-07T11:19:06.546Z,20.80
2017-11-07T11:21:34.049Z,21.10
2017-11-07T11:24:02.368Z,19.93
2017-11-07T11:26:29.869Z,22.33
2017-11-07T11:28:58.129Z,20.50
2017-11-07T11:31:25.742Z,19.47
2017-11-07T11:33:53.294Z,20.33
2017-11-07T11:36:20.844Z,182.40
2017-11-07T11:38:48.390Z,90.30
2017-11-07T11:41:16.659Z,69.70
2017-11-07T11:43:44.905Z,87.37
2017-11-07T11:46:12.500Z,74.40
2017-11-07T11:48:40.764Z,118.30
2017-11-07T11:51:08.288Z,299.27
2017-11-07T11:53:35.815Z,137.27
2017-11-07T11:56:03.328Z,120.97
2017-11-07T11:58:30.830Z,47.67
2017-11-07T12:00:58.340Z,84.67
2017-11-07T12:03:25.971Z,99.73
2017-11-07T12:05:53.509Z,44.33
2017-11-07T12:08:21.048Z,76.87
2017-11-07T12:10:49.321Z,83.93
2017-11-07T12:13:17.614Z,37.80
2017-11-07T12:15:45.128Z,54.20
2017-11-07T12:18:12.616Z,53.27
2017-11-07T12:20:40.873Z,43.07
2017-11-07T12:23:08.472Z,32.53
2017-11-07T12:25:36.027Z,23.80
2017-11-07T12:28:03.516Z,37.00
2017-11-07T12:30:31.130Z,48.10
2017-11-07T12:32:59.429Z,35.87
2017-11-07T12:35:27.254Z,27.73
2017-11-07T12:37:56.273Z,29.03
2017-11-07T12:40:23.762Z,26.80
2017-11-07T12:42:51.261Z,22.83
2017-11-07T12:45:18.851Z,34.57
2017-11-07T12:47:46.346Z,38.33
2017-11-07T12:50:25.742Z,31.23
2017-11-07T12:52:54.010Z,30.77
2017-11-07T12:55:22.276Z,21.53
2017-11-07T12:57:49.769Z,25.73
2017-11-07T13:00:17.315Z,24.53
2017-11-07T13:02:45.600Z,19.90
2017-11-07T13:05:13.093Z,22.73
2017-11-07T13:07:40.607Z,19.57
2017-11-07T13:10:08.903Z,17.70
2017-11-07T13:12:36.400Z,19.93
2017-11-07T13:15:03.887Z,22.33
2017-11-07T13:17:32.260Z,19.37
2017-11-07T13:20:00.524Z,18.63
2017-11-07T13:22:28.015Z,21.30
2017-11-07T13:24:55.498Z,19.83
2017-11-07T13:27:23.021Z,21.30
2017-11-07T13:29:51.288Z,21.50
2017-11-07T13:32:19.583Z,24.50
2017-11-07T13:34:47.072Z,22.07
2017-11-07T13:37:14.582Z,20.70
2017-11-07T13:39:42.893Z,20.93
2017-11-07T13:42:10.414Z,21.17
2017-11-07T13:44:38.687Z,19.70
2017-11-07T13:47:06.952Z,23.60
2017-11-07T13:49:34.432Z,23.87
2017-11-07T13:52:02.753Z,19.80
2017-11-07T13:54:30.229Z,22.03
2017-11-07T13:56:57.829Z,17.37
2017-11-07T13:59:26.105Z,20.53
2017-11-07T14:01:54.372Z,22.00
2017-11-07T14:04:22.628Z,21.23
2017-11-07T14:06:50.121Z,19.83
2017-11-07T14:09:17.622Z,21.97
2017-11-07T14:11:45.151Z,20.37
2017-11-07T14:14:12.654Z,20.70
2017-11-07T14:16:40.171Z,21.63
2017-11-07T14:19:07.665Z,21.50
2017-11-07T14:21:35.168Z,22.57
2017-11-07T14:24:03.446Z,21.47
2017-11-07T14:26:31.734Z,24.10
2017-11-07T14:28:59.233Z,22.90
2017-11-07T14:31:26.738Z,22.50
2017-11-07T14:33:55.005Z,24.17
2017-11-07T14:36:23.259Z,26.90
2017-11-07T14:38:51.594Z,23.83
2017-11-07T14:41:19.101Z,24.40
2017-11-07T14:43:46.587Z,25.57
2017-11-07T14:46:14.147Z,25.03
2017-11-07T14:48:41.645Z,27.07
2017-11-07T14:51:09.753Z,26.57
2017-11-07T14:53:38.056Z,30.20
2017-11-07T14:56:05.630Z,28.77
2017-11-07T14:58:33.117Z,27.17
2017-11-07T15:01:00.745Z,27.87
2017-11-07T15:03:28.254Z,30.63
2017-11-07T15:05:55.749Z,31.17
2017-11-07T15:08:23.327Z,35.60
2017-11-07T15:10:51.688Z,29.47
2017-11-07T15:13:19.171Z,35.07
2017-11-07T15:15:46.836Z,32.23
2017-11-07T15:18:14.474Z,31.23
2017-11-07T15:20:42.025Z,33.07
2017-11-07T15:23:09.575Z,32.83
2017-11-07T15:25:37.858Z,32.70
2017-11-07T15:28:06.114Z,32.37
2017-11-07T15:30:34.414Z,32.80
2017-11-07T15:33:01.907Z,35.20
2017-11-07T15:35:29.615Z,33.73
2017-11-07T15:37:58.637Z,37.67
2017-11-07T15:40:26.145Z,34.63
2017-11-07T15:42:53.645Z,36.50
2017-11-07T15:45:21.156Z,39.30
2017-11-07T15:47:48.685Z,36.63
2017-11-07T15:50:16.189Z,38.70
2017-11-07T15:52:43.672Z,36.93
2017-11-07T15:55:11.232Z,37.30
2017-11-07T15:57:38.795Z,40.20
2017-11-07T16:00:06.308Z,37.53
2017-11-07T16:02:33.827Z,41.93
2017-11-07T16:05:01.359Z,43.90
2017-11-07T16:07:28.892Z,41.37
2017-11-07T16:09:56.379Z,41.23
2017-11-07T16:12:24.654Z,46.77
2017-11-07T16:14:52.929Z,45.83
2017-11-07T16:17:21.230Z,46.67
2017-11-07T16:19:48.746Z,54.10
2017-11-07T16:22:16.284Z,52.57
2017-11-07T16:24:43.782Z,47.77
2017-11-07T16:27:12.057Z,52.77
2017-11-07T16:29:40.333Z,47.47
2017-11-07T16:32:09.381Z,56.60
2017-11-07T16:34:36.875Z,50.23
2017-11-07T16:37:04.418Z,51.43
2017-11-07T16:39:31.926Z,48.07
2017-11-07T16:41:59.432Z,50.53
2017-11-07T16:44:26.928Z,54.47
2017-11-07T16:46:54.500Z,60.47
2017-11-07T16:49:22.019Z,57.83
2017-11-07T16:51:49.513Z,50.70
2017-11-07T16:54:17.074Z,52.77
2017-11-07T16:56:44.638Z,52.27
2017-11-07T16:59:12.133Z,51.43
2017-11-07T17:01:39.649Z,50.67
2017-11-07T17:04:07.155Z,56.97
2017-11-07T17:06:34.665Z,74.10
2017-11-07T17:09:02.218Z,68.67
2017-11-07T17:11:29.717Z,71.37
2017-11-07T17:13:57.209Z,63.77
2017-11-07T17:16:25.514Z,58.97
2017-11-07T17:18:53.014Z,58.23
2017-11-07T17:21:20.521Z,58.17
2017-11-07T17:23:48.772Z,55.40
2017-11-07T17:26:16.299Z,56.57
2017-11-07T17:28:43.802Z,57.47
2017-11-07T17:31:13.013Z,59.23
2017-11-07T17:33:40.516Z,60.90
2017-11-07T17:36:08.023Z,58.47
2017-11-07T17:38:36.810Z,57.57
2017-11-07T17:41:05.078Z,63.57
2017-11-07T17:43:33.333Z,61.00
2017-11-07T17:46:00.833Z,65.60
2017-11-07T17:48:28.367Z,61.87
2017-11-07T17:50:55.863Z,62.87
2017-11-07T17:53:23.360Z,65.97
2017-11-07T17:55:50.882Z,64.37
2017-11-07T17:58:18.379Z,65.47
2017-11-07T18:00:45.894Z,70.83
2017-11-07T18:03:13.423Z,62.47
2017-11-07T18:05:41.769Z,67.43
2017-11-07T18:08:09.269Z,68.67
2017-11-07T18:10:36.810Z,72.83
2017-11-07T18:13:05.072Z,79.17
2017-11-07T18:15:33.361Z,72.50
2017-11-07T18:18:01.641Z,72.13
2017-11-07T18:20:30.189Z,81.90
2017-11-07T18:22:57.814Z,78.77
2017-11-07T18:25:25.324Z,74.13
2017-11-07T18:27:52.833Z,76.53
2017-11-07T18:30:20.334Z,77.47
2017-11-07T18:32:47.919Z,76.37
2017-11-07T18:35:16.202Z,78.33
2017-11-07T18:37:44.452Z,82.37
2017-11-07T18:40:11.954Z,87.00
2017-11-07T18:42:39.497Z,84.87
2017-11-07T18:45:07.020Z,89.30
2017-11-07T18:47:34.548Z,86.47
2017-11-07T18:50:02.309Z,88.73
2017-11-07T18:52:29.825Z,78.40
2017-11-07T18:54:58.096Z,80.23
2017-11-07T18:57:25.619Z,88.60
2017-11-07T18:59:53.160Z,87.07
2017-11-07T19:02:20.657Z,84.10
2017-11-07T19:04:48.161Z,84.40
2017-11-07T19:07:15.689Z,90.03
2017-11-07T19:09:43.175Z,84.03
2017-11-07T19:12:10.677Z,85.47
2017-11-07T19:14:39.469Z,86.07
2017-11-07T19:17:07.024Z,90.37
2017-11-07T19:19:34.751Z,103.40
2017-11-07T19:22:02.295Z,91.87
2017-11-07T19:24:29.802Z,85.30
2017-11-07T19:26:57.369Z,84.83
2017-11-07T19:29:24.874Z,86.00
2017-11-07T19:31:52.372Z,88.53
2017-11-07T19:34:19.902Z,88.20
2017-11-07T19:36:47.479Z,83.10
2017-11-07T19:39:15.050Z,88.53
2017-11-07T19:41:42.603Z,90.73
2017-11-07T19:44:10.088Z,86.70
2017-11-07T19:46:37.600Z,90.07
2017-11-07T19:49:05.143Z,79.63
2017-11-07T19:51:32.787Z,84.10
2017-11-07T19:54:01.036Z,83.20
2017-11-07T19:56:28.633Z,83.30
2017-11-07T19:58:57.066Z,99.17
2017-11-07T20:01:25.386Z,87.13
2017-11-07T20:06:26.367Z,85.97
2017-11-07T20:08:53.902Z,79.67
2017-11-07T20:11:22.181Z,90.23
2017-11-07T20:13:50.464Z,83.57
2017-11-07T20:16:18.025Z,81.10
2017-11-07T20:18:45.540Z,82.60
2017-11-07T20:21:13.092Z,83.83
2017-11-07T20:23:40.635Z,84.07
2017-11-07T20:26:08.289Z,89.17
2017-11-07T20:28:35.904Z,84.57
2017-11-07T20:31:03.469Z,88.20
2017-11-07T20:33:31.766Z,90.20
2017-11-07T20:35:59.296Z,80.50
2017-11-07T20:38:26.790Z,87.60
2017-11-07T20:40:54.341Z,86.60
2017-11-07T20:43:21.865Z,100.60
2017-11-07T20:45:51.095Z,92.67
2017-11-07T20:48:18.605Z,93.57
2017-11-07T20:50:46.144Z,88.70
2017-11-07T20:53:13.745Z,82.80
2017-11-07T20:55:41.293Z,90.53
2017-11-07T20:58:08.917Z,88.43
2017-11-07T21:00:36.428Z,81.23
2017-11-07T21:03:04.684Z,86.00
2017-11-07T21:05:32.195Z,88.23
2017-11-07T21:08:00.239Z,83.90
2017-11-07T21:10:28.562Z,80.43
2017-11-07T21:12:58.169Z,87.03
2017-11-07T21:15:26.407Z,86.93
2017-11-07T21:17:53.912Z,86.33
2017-11-07T21:20:24.348Z,84.47
2017-11-07T21:22:52.181Z,83.73
2017-11-07T21:25:19.689Z,82.37
2017-11-07T21:27:47.200Z,85.00
2017-11-07T21:30:14.726Z,87.53
2017-11-07T21:32:43.825Z,91.20
2017-11-07T21:37:52.400Z,100.03
2017-11-07T21:40:20.439Z,90.03
2017-11-07T21:42:47.938Z,88.77
2017-11-07T21:45:15.501Z,90.40
2017-11-07T21:47:42.992Z,88.67
2017-11-07T21:50:12.497Z,94.53
2017-11-07T21:52:40.013Z,83.53
2017-11-07T21:55:08.026Z,84.53
2017-11-07T21:57:36.625Z,86.30
2017-11-07T22:00:04.971Z,82.10
2017-11-07T22:02:40.892Z,89.27
2017-11-07T22:05:13.344Z,85.10
2017-11-07T22:07:41.455Z,91.20
2017-11-07T22:10:14.758Z,83.83
2017-11-07T22:12:42.260Z,86.17
2017-11-07T22:15:09.870Z,93.17
2017-11-07T22:17:37.360Z,87.47
2017-11-07T22:20:07.404Z,88.77
2017-11-07T22:22:40.680Z,87.33
2017-11-07T22:25:17.250Z,82.57
2017-11-07T22:27:45.569Z,82.07
2017-11-07T22:32:55.906Z,87.93
2017-11-07T22:35:30.545Z,86.20
2017-11-07T22:37:58.044Z,88.77
2017-11-07T22:40:25.560Z,83.40
2017-11-07T22:42:53.053Z,93.33
2017-11-07T22:45:21.228Z,90.13
2017-11-07T22:47:48.921Z,99.30
2017-11-07T22:50:16.453Z,101.17
2017-11-07T22:52:43.969Z,115.53
2017-11-07T22:55:11.462Z,107.80
2017-11-07T22:57:38.993Z,107.87
2017-11-07T23:00:06.516Z,100.23
2017-11-07T23:02:34.054Z,104.50
2017-11-07T23:05:01.577Z,90.20
2017-11-07T23:07:29.095Z,85.73
2017-11-07T23:10:00.978Z,90.73
2017-11-07T23:12:28.540Z,82.40
2017-11-07T23:14:56.402Z,91.20
2017-11-07T23:17:30.609Z,93.37
2017-11-07T23:19:58.876Z,91.93
2017-11-07T23:22:27.165Z,87.53
2017-11-07T23:24:54.685Z,95.13
2017-11-07T23:27:22.202Z,93.40
2017-11-07T23:29:49.758Z,98.60
2017-11-07T23:32:17.264Z,90.73
2017-11-07T23:34:44.773Z,93.23
2017-11-07T23:37:12.258Z,90.63
2017-11-07T23:39:39.889Z,97.37
2017-11-07T23:42:07.391Z,86.83
2017-11-07T23:44:34.894Z,95.10
2017-11-07T23:47:03.212Z,101.10
2017-11-07T23:49:30.776Z,90.67
2017-11-07T23:51:58.318Z,94.43
2017-11-07T23:54:25.811Z,94.33
2017-11-07T23:56:53.328Z,97.53
2017-11-07T23:59:20.849Z,100.17
